Terminal Aerodrome Forecast
Issued by NWS

Home | Current Version | Previous Version | Text Only | Print | Product List | Glossary On
Versions: 1 2 3 4 5 6 7 8 9 10 11 12 13 14 15 16 17 18 19 20 21 22 23
000
FTUS45 KABQ 010529
TAFLVS
TAF
KLVS 010529Z 0106/0206 02015G22KT 1/2SM -SN FG OVC003
     FM011500 02015G22KT 3SM -RASN BR OVC008
     FM011900 04012G18KT 5SM -RA BR BKN012 OVC030
     FM020100 02007KT 5SM BR OVC007=

USA.gov is the U.S. government's official web portal to all federal, state and local government web resources and services.